Village, Arkansas
Current Conditions -  °F | °C
As of 1:53 PM on Thursday 27 Nov 2014 (Local Time) from KELD Reporting Station
Clear Clear  
Wind Chill: 51°   Ceiling: Unl
Heat Index: 51°   Visibility: 10mi
Dew Point: 29°   Wind: 7mph
Humidity: 43%   Direction: 40°NE
Pressure: 30.47"   Gusts: NA
Location:  33.26°N, 93.05°W
Report Text: KELD 271953Z AUTO 04006KT 10SM CLR 11/M02 A3047 RMK AO2 SLP317 T01061017
Loading
Personal Weather Stations






























Interactive Weather Map New forecast layout! Learn more

10-Day Weather Forecast

Advertisements
Track Severe Weather on mobile